sensor_id;sensor_type;location;lat;lon;timestamp;P1;durP1;ratioP1;P2;durP2;ratioP2
72924;SDS011;61070;50.794;7.054;2023-05-15T00:00:22;3.63;;;2.58;;
72924;SDS011;61070;50.794;7.054;2023-05-15T00:02:47;7.15;;;3.17;;
72924;SDS011;61070;50.794;7.054;2023-05-15T00:05:13;5.80;;;3.03;;
72924;SDS011;61070;50.794;7.054;2023-05-15T00:07:39;3.22;;;2.72;;
72924;SDS011;61070;50.794;7.054;2023-05-15T00:10:05;5.93;;;2.97;;
72924;SDS011;61070;50.794;7.054;2023-05-15T00:12:30;4.35;;;2.85;;
72924;SDS011;61070;50.794;7.054;2023-05-15T00:14:56;7.90;;;3.45;;
72924;SDS011;61070;50.794;7.054;2023-05-15T00:17:21;4.80;;;2.85;;
72924;SDS011;61070;50.794;7.054;2023-05-15T00:19:46;3.90;;;3.10;;
72924;SDS011;61070;50.794;7.054;2023-05-15T00:22:12;10.63;;;3.30;;
72924;SDS011;61070;50.794;7.054;2023-05-15T00:24:37;8.52;;;2.85;;
72924;SDS011;61070;50.794;7.054;2023-05-15T00:27:02;6.28;;;2.97;;
72924;SDS011;61070;50.794;7.054;2023-05-15T00:29:28;4.28;;;3.25;;
72924;SDS011;61070;50.794;7.054;2023-05-15T00:31:53;5.22;;;3.05;;
72924;SDS011;61070;50.794;7.054;2023-05-15T00:34:20;7.15;;;5.10;;
72924;SDS011;61070;50.794;7.054;2023-05-15T00:36:45;6.95;;;5.20;;
72924;SDS011;61070;50.794;7.054;2023-05-15T00:39:11;10.70;;;5.93;;
72924;SDS011;61070;50.794;7.054;2023-05-15T00:41:36;8.98;;;5.78;;
72924;SDS011;61070;50.794;7.054;2023-05-15T00:44:04;10.77;;;5.78;;
72924;SDS011;61070;50.794;7.054;2023-05-15T00:46:31;10.40;;;6.18;;
72924;SDS011;61070;50.794;7.054;2023-05-15T00:48:57;9.90;;;7.53;;
72924;SDS011;61070;50.794;7.054;2023-05-15T00:51:23;15.23;;;7.35;;
72924;SDS011;61070;50.794;7.054;2023-05-15T00:53:50;14.18;;;8.30;;
72924;SDS011;61070;50.794;7.054;2023-05-15T00:56:16;21.23;;;10.80;;
72924;SDS011;61070;50.794;7.054;2023-05-15T00:58:42;18.63;;;8.90;;
72924;SDS011;61070;50.794;7.054;2023-05-15T01:01:09;14.60;;;10.48;;
72924;SDS011;61070;50.794;7.054;2023-05-15T01:03:35;17.63;;;11.48;;
72924;SDS011;61070;50.794;7.054;2023-05-15T01:06:00;21.60;;;11.25;;
72924;SDS011;61070;50.794;7.054;2023-05-15T01:08:26;16.55;;;11.48;;
72924;SDS011;61070;50.794;7.054;2023-05-15T01:11:03;23.02;;;11.50;;
72924;SDS011;61070;50.794;7.054;2023-05-15T01:13:29;16.75;;;11.82;;
72924;SDS011;61070;50.794;7.054;2023-05-15T01:15:55;23.23;;;11.85;;
72924;SDS011;61070;50.794;7.054;2023-05-15T01:18:20;18.27;;;11.43;;
72924;SDS011;61070;50.794;7.054;2023-05-15T01:20:53;21.58;;;12.48;;
72924;SDS011;61070;50.794;7.054;2023-05-15T01:28:58;20.17;;;11.80;;
72924;SDS011;61070;50.794;7.054;2023-05-15T01:31:27;19.23;;;12.65;;
72924;SDS011;61070;50.794;7.054;2023-05-15T01:33:58;19.83;;;13.45;;
72924;SDS011;61070;50.794;7.054;2023-05-15T01:36:32;28.10;;;14.52;;
72924;SDS011;61070;50.794;7.054;2023-05-15T01:39:02;20.85;;;14.20;;
72924;SDS011;61070;50.794;7.054;2023-05-15T01:41:35;24.48;;;14.57;;
72924;SDS011;61070;50.794;7.054;2023-05-15T01:44:33;31.60;;;16.08;;
72924;SDS011;61070;50.794;7.054;2023-05-15T01:47:03;26.27;;;15.60;;
72924;SDS011;61070;50.794;7.054;2023-05-15T01:49:32;27.13;;;15.48;;
72924;SDS011;61070;50.794;7.054;2023-05-15T01:52:05;29.02;;;16.55;;
72924;SDS011;61070;50.794;7.054;2023-05-15T01:54:37;29.40;;;17.40;;
72924;SDS011;61070;50.794;7.054;2023-05-15T01:57:04;29.75;;;18.55;;
72924;SDS011;61070;50.794;7.054;2023-05-15T01:59:31;30.52;;;19.42;;
72924;SDS011;61070;50.794;7.054;2023-05-15T02:01:58;34.38;;;20.90;;
72924;SDS011;61070;50.794;7.054;2023-05-15T02:04:24;36.38;;;20.95;;
72924;SDS011;61070;50.794;7.054;2023-05-15T02:06:50;38.92;;;20.95;;
72924;SDS011;61070;50.794;7.054;2023-05-15T02:09:18;34.97;;;21.05;;
72924;SDS011;61070;50.794;7.054;2023-05-15T02:11:45;38.67;;;21.65;;
72924;SDS011;61070;50.794;7.054;2023-05-15T02:14:11;41.03;;;22.77;;
72924;SDS011;61070;50.794;7.054;2023-05-15T02:16:37;39.08;;;22.90;;
72924;SDS011;61070;50.794;7.054;2023-05-15T02:19:02;40.83;;;24.02;;
72924;SDS011;61070;50.794;7.054;2023-05-15T02:21:28;44.95;;;25.50;;
72924;SDS011;61070;50.794;7.054;2023-05-15T02:23:53;48.53;;;26.48;;
72924;SDS011;61070;50.794;7.054;2023-05-15T02:29:09;55.05;;;26.67;;
72924;SDS011;61070;50.794;7.054;2023-05-15T02:31:46;45.30;;;26.75;;
72924;SDS011;61070;50.794;7.054;2023-05-15T02:36:52;49.72;;;26.30;;
72924;SDS011;61070;50.794;7.054;2023-05-15T02:39:20;52.85;;;28.15;;
72924;SDS011;61070;50.794;7.054;2023-05-15T02:41:49;54.72;;;31.02;;
72924;SDS011;61070;50.794;7.054;2023-05-15T02:44:16;55.17;;;32.03;;
72924;SDS011;61070;50.794;7.054;2023-05-15T02:46:42;61.67;;;29.75;;
72924;SDS011;61070;50.794;7.054;2023-05-15T02:49:08;55.40;;;30.48;;
72924;SDS011;61070;50.794;7.054;2023-05-15T02:51:35;55.03;;;31.85;;
72924;SDS011;61070;50.794;7.054;2023-05-15T02:54:01;64.45;;;33.47;;
72924;SDS011;61070;50.794;7.054;2023-05-15T02:56:26;79.03;;;37.38;;
72924;SDS011;61070;50.794;7.054;2023-05-15T02:58:52;77.20;;;36.45;;
72924;SDS011;61070;50.794;7.054;2023-05-15T03:01:17;77.10;;;36.20;;
72924;SDS011;61070;50.794;7.054;2023-05-15T03:03:43;71.53;;;36.70;;
72924;SDS011;61070;50.794;7.054;2023-05-15T03:06:08;76.05;;;35.72;;
72924;SDS011;61070;50.794;7.054;2023-05-15T03:08:33;76.50;;;37.55;;
72924;SDS011;61070;50.794;7.054;2023-05-15T03:10:59;82.00;;;39.25;;
72924;SDS011;61070;50.794;7.054;2023-05-15T03:13:24;94.57;;;40.22;;
72924;SDS011;61070;50.794;7.054;2023-05-15T03:15:50;94.65;;;42.35;;
72924;SDS011;61070;50.794;7.054;2023-05-15T03:18:16;98.38;;;45.00;;
72924;SDS011;61070;50.794;7.054;2023-05-15T03:20:42;110.88;;;47.80;;
72924;SDS011;61070;50.794;7.054;2023-05-15T03:23:08;109.70;;;48.90;;
72924;SDS011;61070;50.794;7.054;2023-05-15T03:25:33;100.72;;;49.63;;
72924;SDS011;61070;50.794;7.054;2023-05-15T03:27:58;114.13;;;51.83;;
72924;SDS011;61070;50.794;7.054;2023-05-15T03:30:24;114.35;;;52.92;;
72924;SDS011;61070;50.794;7.054;2023-05-15T03:32:49;110.35;;;50.42;;
72924;SDS011;61070;50.794;7.054;2023-05-15T03:35:14;116.25;;;50.28;;
72924;SDS011;61070;50.794;7.054;2023-05-15T03:37:40;112.90;;;49.63;;
72924;SDS011;61070;50.794;7.054;2023-05-15T03:40:06;106.13;;;51.45;;
72924;SDS011;61070;50.794;7.054;2023-05-15T03:42:32;109.32;;;47.20;;
72924;SDS011;61070;50.794;7.054;2023-05-15T03:44:57;103.22;;;48.38;;
72924;SDS011;61070;50.794;7.054;2023-05-15T03:47:23;99.22;;;46.95;;
72924;SDS011;61070;50.794;7.054;2023-05-15T03:49:48;89.97;;;46.13;;
72924;SDS011;61070;50.794;7.054;2023-05-15T03:52:13;89.82;;;44.65;;
72924;SDS011;61070;50.794;7.054;2023-05-15T03:54:39;97.43;;;45.90;;
72924;SDS011;61070;50.794;7.054;2023-05-15T03:57:04;103.00;;;45.58;;
72924;SDS011;61070;50.794;7.054;2023-05-15T03:59:30;93.32;;;46.22;;
72924;SDS011;61070;50.794;7.054;2023-05-15T04:01:55;96.82;;;45.70;;
72924;SDS011;61070;50.794;7.054;2023-05-15T04:04:21;90.93;;;45.55;;
72924;SDS011;61070;50.794;7.054;2023-05-15T04:06:46;99.53;;;47.25;;
72924;SDS011;61070;50.794;7.054;2023-05-15T04:09:11;85.90;;;42.70;;
72924;SDS011;61070;50.794;7.054;2023-05-15T04:11:36;88.03;;;43.70;;
72924;SDS011;61070;50.794;7.054;2023-05-15T04:14:02;96.13;;;46.95;;
72924;SDS011;61070;50.794;7.054;2023-05-15T04:16:27;91.97;;;43.75;;
72924;SDS011;61070;50.794;7.054;2023-05-15T04:18:52;97.82;;;45.45;;
72924;SDS011;61070;50.794;7.054;2023-05-15T04:21:18;98.32;;;46.20;;
72924;SDS011;61070;50.794;7.054;2023-05-15T04:23:43;104.82;;;47.90;;
72924;SDS011;61070;50.794;7.054;2023-05-15T04:26:08;90.68;;;43.60;;
72924;SDS011;61070;50.794;7.054;2023-05-15T04:28:34;90.38;;;44.63;;
72924;SDS011;61070;50.794;7.054;2023-05-15T04:30:59;83.78;;;42.30;;
72924;SDS011;61070;50.794;7.054;2023-05-15T04:33:24;78.95;;;40.88;;
72924;SDS011;61070;50.794;7.054;2023-05-15T04:35:50;87.20;;;40.92;;
72924;SDS011;61070;50.794;7.054;2023-05-15T04:38:16;76.75;;;40.90;;
72924;SDS011;61070;50.794;7.054;2023-05-15T04:40:41;76.93;;;39.08;;
72924;SDS011;61070;50.794;7.054;2023-05-15T04:43:07;72.03;;;38.60;;
72924;SDS011;61070;50.794;7.054;2023-05-15T04:45:32;76.00;;;35.53;;
72924;SDS011;61070;50.794;7.054;2023-05-15T04:47:57;64.45;;;36.15;;
72924;SDS011;61070;50.794;7.054;2023-05-15T04:50:22;64.78;;;33.28;;
72924;SDS011;61070;50.794;7.054;2023-05-15T04:52:48;61.65;;;35.50;;
72924;SDS011;61070;50.794;7.054;2023-05-15T04:55:13;63.60;;;34.47;;
72924;SDS011;61070;50.794;7.054;2023-05-15T04:57:38;53.00;;;33.35;;
72924;SDS011;61070;50.794;7.054;2023-05-15T05:00:04;62.97;;;33.65;;
72924;SDS011;61070;50.794;7.054;2023-05-15T05:02:36;58.03;;;33.60;;
72924;SDS011;61070;50.794;7.054;2023-05-15T05:05:02;65.32;;;35.40;;
72924;SDS011;61070;50.794;7.054;2023-05-15T05:07:27;63.42;;;36.22;;
72924;SDS011;61070;50.794;7.054;2023-05-15T05:09:53;74.82;;;36.28;;
72924;SDS011;61070;50.794;7.054;2023-05-15T05:12:18;69.78;;;35.55;;
72924;SDS011;61070;50.794;7.054;2023-05-15T05:14:44;68.90;;;37.15;;
72924;SDS011;61070;50.794;7.054;2023-05-15T05:17:09;72.68;;;38.92;;
72924;SDS011;61070;50.794;7.054;2023-05-15T05:19:34;67.32;;;35.92;;
72924;SDS011;61070;50.794;7.054;2023-05-15T05:22:00;71.25;;;36.42;;
72924;SDS011;61070;50.794;7.054;2023-05-15T05:24:28;70.20;;;37.65;;
72924;SDS011;61070;50.794;7.054;2023-05-15T05:26:54;74.70;;;38.78;;
72924;SDS011;61070;50.794;7.054;2023-05-15T05:29:22;66.70;;;39.25;;
72924;SDS011;61070;50.794;7.054;2023-05-15T05:31:47;70.68;;;38.90;;
72924;SDS011;61070;50.794;7.054;2023-05-15T05:34:12;71.75;;;38.30;;
72924;SDS011;61070;50.794;7.054;2023-05-15T05:36:38;78.07;;;39.75;;
72924;SDS011;61070;50.794;7.054;2023-05-15T05:39:03;70.78;;;38.35;;
72924;SDS011;61070;50.794;7.054;2023-05-15T05:41:28;73.10;;;37.08;;
72924;SDS011;61070;50.794;7.054;2023-05-15T05:43:54;72.97;;;38.95;;
72924;SDS011;61070;50.794;7.054;2023-05-15T05:46:20;75.05;;;38.88;;
72924;SDS011;61070;50.794;7.054;2023-05-15T05:48:45;73.95;;;40.92;;
72924;SDS011;61070;50.794;7.054;2023-05-15T05:51:10;72.65;;;38.80;;
72924;SDS011;61070;50.794;7.054;2023-05-15T05:53:35;70.60;;;38.55;;
72924;SDS011;61070;50.794;7.054;2023-05-15T05:56:01;72.05;;;38.13;;
72924;SDS011;61070;50.794;7.054;2023-05-15T05:58:26;72.10;;;38.10;;
72924;SDS011;61070;50.794;7.054;2023-05-15T06:00:52;67.43;;;37.42;;
72924;SDS011;61070;50.794;7.054;2023-05-15T06:03:17;65.55;;;35.42;;
72924;SDS011;61070;50.794;7.054;2023-05-15T06:05:44;70.80;;;36.42;;
72924;SDS011;61070;50.794;7.054;2023-05-15T06:08:10;65.63;;;36.72;;
72924;SDS011;61070;50.794;7.054;2023-05-15T06:10:35;81.70;;;43.03;;
72924;SDS011;61070;50.794;7.054;2023-05-15T06:13:01;85.50;;;45.90;;
72924;SDS011;61070;50.794;7.054;2023-05-15T06:15:26;92.22;;;48.70;;
72924;SDS011;61070;50.794;7.054;2023-05-15T06:17:51;97.00;;;48.88;;
72924;SDS011;61070;50.794;7.054;2023-05-15T06:20:17;99.85;;;49.67;;
72924;SDS011;61070;50.794;7.054;2023-05-15T06:22:42;103.57;;;51.55;;
72924;SDS011;61070;50.794;7.054;2023-05-15T06:25:07;101.00;;;51.45;;
72924;SDS011;61070;50.794;7.054;2023-05-15T06:27:37;107.75;;;53.13;;
72924;SDS011;61070;50.794;7.054;2023-05-15T06:30:04;108.00;;;52.65;;
72924;SDS011;61070;50.794;7.054;2023-05-15T06:32:30;103.82;;;53.47;;
72924;SDS011;61070;50.794;7.054;2023-05-15T06:34:57;108.65;;;51.20;;
72924;SDS011;61070;50.794;7.054;2023-05-15T06:37:22;99.78;;;49.10;;
72924;SDS011;61070;50.794;7.054;2023-05-15T06:39:48;91.00;;;47.63;;
72924;SDS011;61070;50.794;7.054;2023-05-15T06:42:13;95.63;;;47.03;;
72924;SDS011;61070;50.794;7.054;2023-05-15T06:44:39;100.00;;;47.88;;
72924;SDS011;61070;50.794;7.054;2023-05-15T06:47:04;94.80;;;45.55;;
72924;SDS011;61070;50.794;7.054;2023-05-15T06:49:30;86.47;;;44.58;;
72924;SDS011;61070;50.794;7.054;2023-05-15T06:51:55;78.57;;;39.80;;
72924;SDS011;61070;50.794;7.054;2023-05-15T06:54:20;75.15;;;39.60;;
72924;SDS011;61070;50.794;7.054;2023-05-15T06:56:46;67.97;;;37.63;;
72924;SDS011;61070;50.794;7.054;2023-05-15T06:59:11;71.68;;;39.97;;
72924;SDS011;61070;50.794;7.054;2023-05-15T07:01:36;80.30;;;41.63;;
72924;SDS011;61070;50.794;7.054;2023-05-15T07:04:02;78.00;;;42.67;;
72924;SDS011;61070;50.794;7.054;2023-05-15T07:06:27;88.22;;;47.20;;
72924;SDS011;61070;50.794;7.054;2023-05-15T07:08:53;86.35;;;48.20;;
72924;SDS011;61070;50.794;7.054;2023-05-15T07:11:18;91.72;;;47.95;;
72924;SDS011;61070;50.794;7.054;2023-05-15T07:13:43;91.75;;;48.03;;
72924;SDS011;61070;50.794;7.054;2023-05-15T07:16:09;90.95;;;48.25;;
72924;SDS011;61070;50.794;7.054;2023-05-15T07:18:34;102.40;;;48.85;;
72924;SDS011;61070;50.794;7.054;2023-05-15T07:21:00;88.53;;;47.22;;
72924;SDS011;61070;50.794;7.054;2023-05-15T07:23:25;94.95;;;48.30;;
72924;SDS011;61070;50.794;7.054;2023-05-15T07:25:53;89.43;;;45.03;;
72924;SDS011;61070;50.794;7.054;2023-05-15T07:28:19;92.78;;;46.10;;
72924;SDS011;61070;50.794;7.054;2023-05-15T07:30:44;92.15;;;45.67;;
72924;SDS011;61070;50.794;7.054;2023-05-15T07:33:09;91.90;;;47.28;;
72924;SDS011;61070;50.794;7.054;2023-05-15T07:35:35;95.15;;;49.22;;
72924;SDS011;61070;50.794;7.054;2023-05-15T07:38:00;88.60;;;46.38;;
72924;SDS011;61070;50.794;7.054;2023-05-15T07:40:26;76.72;;;43.60;;
72924;SDS011;61070;50.794;7.054;2023-05-15T07:42:51;86.22;;;43.30;;
72924;SDS011;61070;50.794;7.054;2023-05-15T07:45:16;80.88;;;41.67;;
72924;SDS011;61070;50.794;7.054;2023-05-15T07:47:43;75.72;;;42.47;;
72924;SDS011;61070;50.794;7.054;2023-05-15T07:50:10;73.45;;;41.45;;
72924;SDS011;61070;50.794;7.054;2023-05-15T07:52:35;72.38;;;39.33;;
72924;SDS011;61070;50.794;7.054;2023-05-15T07:55:01;70.93;;;39.22;;
72924;SDS011;61070;50.794;7.054;2023-05-15T07:57:26;74.93;;;39.40;;
72924;SDS011;61070;50.794;7.054;2023-05-15T07:59:51;74.85;;;42.30;;
72924;SDS011;61070;50.794;7.054;2023-05-15T08:02:16;85.35;;;40.22;;
72924;SDS011;61070;50.794;7.054;2023-05-15T08:04:42;80.38;;;42.33;;
72924;SDS011;61070;50.794;7.054;2023-05-15T08:07:07;83.30;;;42.65;;
72924;SDS011;61070;50.794;7.054;2023-05-15T08:09:32;82.68;;;43.05;;
72924;SDS011;61070;50.794;7.054;2023-05-15T08:12:13;81.65;;;42.45;;
72924;SDS011;61070;50.794;7.054;2023-05-15T08:14:41;88.53;;;45.70;;
72924;SDS011;61070;50.794;7.054;2023-05-15T08:17:06;95.80;;;47.17;;
72924;SDS011;61070;50.794;7.054;2023-05-15T08:19:32;88.78;;;45.38;;
72924;SDS011;61070;50.794;7.054;2023-05-15T08:21:57;91.05;;;46.35;;
72924;SDS011;61070;50.794;7.054;2023-05-15T08:24:22;88.93;;;47.65;;
72924;SDS011;61070;50.794;7.054;2023-05-15T08:26:47;87.72;;;47.00;;
72924;SDS011;61070;50.794;7.054;2023-05-15T08:29:13;88.30;;;46.95;;
72924;SDS011;61070;50.794;7.054;2023-05-15T08:31:38;85.10;;;45.15;;
72924;SDS011;61070;50.794;7.054;2023-05-15T08:34:03;84.10;;;45.97;;
72924;SDS011;61070;50.794;7.054;2023-05-15T08:36:28;94.82;;;47.10;;
72924;SDS011;61070;50.794;7.054;2023-05-15T08:38:54;86.97;;;46.33;;
72924;SDS011;61070;50.794;7.054;2023-05-15T08:41:32;84.95;;;46.72;;
72924;SDS011;61070;50.794;7.054;2023-05-15T08:44:05;84.28;;;45.08;;
72924;SDS011;61070;50.794;7.054;2023-05-15T08:46:32;85.93;;;46.80;;
72924;SDS011;61070;50.794;7.054;2023-05-15T08:48:58;89.63;;;48.17;;
72924;SDS011;61070;50.794;7.054;2023-05-15T08:51:33;93.90;;;46.72;;
72924;SDS011;61070;50.794;7.054;2023-05-15T08:53:58;86.78;;;46.83;;
72924;SDS011;61070;50.794;7.054;2023-05-15T08:56:24;82.03;;;45.40;;
72924;SDS011;61070;50.794;7.054;2023-05-15T08:58:50;86.20;;;44.72;;
72924;SDS011;61070;50.794;7.054;2023-05-15T09:01:15;85.68;;;45.15;;
72924;SDS011;61070;50.794;7.054;2023-05-15T09:03:41;82.30;;;44.55;;
72924;SDS011;61070;50.794;7.054;2023-05-15T09:06:06;85.82;;;46.05;;
72924;SDS011;61070;50.794;7.054;2023-05-15T09:08:33;81.38;;;45.35;;
72924;SDS011;61070;50.794;7.054;2023-05-15T09:11:00;80.22;;;44.22;;
72924;SDS011;61070;50.794;7.054;2023-05-15T09:13:28;82.40;;;45.45;;
72924;SDS011;61070;50.794;7.054;2023-05-15T09:15:55;90.05;;;46.20;;
72924;SDS011;61070;50.794;7.054;2023-05-15T09:18:20;79.63;;;46.83;;
72924;SDS011;61070;50.794;7.054;2023-05-15T09:20:46;78.72;;;44.13;;
72924;SDS011;61070;50.794;7.054;2023-05-15T09:23:21;81.43;;;44.67;;
72924;SDS011;61070;50.794;7.054;2023-05-15T09:25:48;82.43;;;46.95;;
72924;SDS011;61070;50.794;7.054;2023-05-15T09:28:24;75.25;;;43.75;;
72924;SDS011;61070;50.794;7.054;2023-05-15T09:30:57;79.13;;;45.97;;
72924;SDS011;61070;50.794;7.054;2023-05-15T09:33:31;81.47;;;46.22;;
72924;SDS011;61070;50.794;7.054;2023-05-15T09:36:04;79.88;;;44.78;;
72924;SDS011;61070;50.794;7.054;2023-05-15T09:38:31;81.55;;;45.28;;
72924;SDS011;61070;50.794;7.054;2023-05-15T09:41:01;84.82;;;46.47;;
72924;SDS011;61070;50.794;7.054;2023-05-15T09:45:57;72.18;;;43.22;;
72924;SDS011;61070;50.794;7.054;2023-05-15T09:48:22;76.00;;;42.22;;
72924;SDS011;61070;50.794;7.054;2023-05-15T09:50:48;91.95;;;45.15;;
72924;SDS011;61070;50.794;7.054;2023-05-15T09:53:13;74.82;;;43.88;;
72924;SDS011;61070;50.794;7.054;2023-05-15T09:55:40;75.22;;;41.70;;
72924;SDS011;61070;50.794;7.054;2023-05-15T09:58:07;75.13;;;43.25;;
72924;SDS011;61070;50.794;7.054;2023-05-15T10:00:37;65.70;;;41.08;;
72924;SDS011;61070;50.794;7.054;2023-05-15T10:03:04;78.03;;;44.88;;
72924;SDS011;61070;50.794;7.054;2023-05-15T10:05:31;77.38;;;43.78;;
72924;SDS011;61070;50.794;7.054;2023-05-15T10:07:56;68.07;;;41.00;;
72924;SDS011;61070;50.794;7.054;2023-05-15T10:10:23;64.97;;;40.88;;
72924;SDS011;61070;50.794;7.054;2023-05-15T10:12:50;73.72;;;41.95;;
72924;SDS011;61070;50.794;7.054;2023-05-15T10:15:16;73.88;;;43.15;;
72924;SDS011;61070;50.794;7.054;2023-05-15T10:17:43;70.57;;;42.85;;
72924;SDS011;61070;50.794;7.054;2023-05-15T10:20:15;71.22;;;43.75;;
72924;SDS011;61070;50.794;7.054;2023-05-15T10:22:46;68.72;;;41.50;;
72924;SDS011;61070;50.794;7.054;2023-05-15T10:25:15;64.10;;;40.35;;
72924;SDS011;61070;50.794;7.054;2023-05-15T10:27:47;68.78;;;40.20;;
72924;SDS011;61070;50.794;7.054;2023-05-15T10:30:15;65.97;;;39.50;;
72924;SDS011;61070;50.794;7.054;2023-05-15T10:32:42;58.35;;;36.75;;
72924;SDS011;61070;50.794;7.054;2023-05-15T10:35:09;54.33;;;34.60;;
72924;SDS011;61070;50.794;7.054;2023-05-15T10:37:35;45.40;;;29.33;;
72924;SDS011;61070;50.794;7.054;2023-05-15T10:40:01;41.30;;;27.65;;
72924;SDS011;61070;50.794;7.054;2023-05-15T10:42:30;45.90;;;28.83;;
72924;SDS011;61070;50.794;7.054;2023-05-15T10:44:57;40.08;;;25.42;;
72924;SDS011;61070;50.794;7.054;2023-05-15T10:47:25;37.22;;;23.80;;
72924;SDS011;61070;50.794;7.054;2023-05-15T10:49:51;36.95;;;22.30;;
72924;SDS011;61070;50.794;7.054;2023-05-15T10:52:17;36.67;;;21.75;;
72924;SDS011;61070;50.794;7.054;2023-05-15T10:54:42;34.55;;;21.95;;
72924;SDS011;61070;50.794;7.054;2023-05-15T10:57:07;30.42;;;19.52;;
72924;SDS011;61070;50.794;7.054;2023-05-15T10:59:33;34.17;;;18.70;;
72924;SDS011;61070;50.794;7.054;2023-05-15T11:05:03;25.88;;;18.30;;
72924;SDS011;61070;50.794;7.054;2023-05-15T11:07:28;29.13;;;18.65;;
72924;SDS011;61070;50.794;7.054;2023-05-15T11:09:54;33.28;;;18.80;;
72924;SDS011;61070;50.794;7.054;2023-05-15T11:12:20;30.52;;;18.08;;
72924;SDS011;61070;50.794;7.054;2023-05-15T11:17:24;31.55;;;19.52;;
72924;SDS011;61070;50.794;7.054;2023-05-15T11:22:18;28.52;;;18.40;;
72924;SDS011;61070;50.794;7.054;2023-05-15T11:27:12;29.25;;;18.40;;
72924;SDS011;61070;50.794;7.054;2023-05-15T11:40:46;28.98;;;18.15;;
72924;SDS011;61070;50.794;7.054;2023-05-15T11:43:23;26.25;;;15.07;;
72924;SDS011;61070;50.794;7.054;2023-05-15T11:45:57;20.15;;;14.55;;
72924;SDS011;61070;50.794;7.054;2023-05-15T11:48:31;27.83;;;15.15;;
72924;SDS011;61070;50.794;7.054;2023-05-15T11:53:30;24.48;;;14.18;;
72924;SDS011;61070;50.794;7.054;2023-05-15T11:55:56;19.38;;;13.02;;
72924;SDS011;61070;50.794;7.054;2023-05-15T11:58:23;23.45;;;14.73;;
72924;SDS011;61070;50.794;7.054;2023-05-15T12:00:50;16.52;;;12.88;;
72924;SDS011;61070;50.794;7.054;2023-05-15T12:03:17;23.00;;;13.85;;
72924;SDS011;61070;50.794;7.054;2023-05-15T12:05:47;25.58;;;13.32;;
72924;SDS011;61070;50.794;7.054;2023-05-15T12:08:13;19.63;;;12.13;;
72924;SDS011;61070;50.794;7.054;2023-05-15T12:10:39;22.83;;;13.80;;
72924;SDS011;61070;50.794;7.054;2023-05-15T12:13:06;65.45;;;35.92;;
72924;SDS011;61070;50.794;7.054;2023-05-15T12:15:35;18.52;;;11.88;;
72924;SDS011;61070;50.794;7.054;2023-05-15T12:18:01;26.83;;;13.73;;
72924;SDS011;61070;50.794;7.054;2023-05-15T12:20:27;19.88;;;10.20;;
72924;SDS011;61070;50.794;7.054;2023-05-15T12:22:53;16.55;;;10.68;;
72924;SDS011;61070;50.794;7.054;2023-05-15T12:25:19;25.48;;;13.30;;
72924;SDS011;61070;50.794;7.054;2023-05-15T12:27:44;23.45;;;11.75;;
72924;SDS011;61070;50.794;7.054;2023-05-15T12:30:10;18.08;;;10.57;;
72924;SDS011;61070;50.794;7.054;2023-05-15T12:32:38;15.32;;;9.77;;
72924;SDS011;61070;50.794;7.054;2023-05-15T12:35:04;16.25;;;10.20;;
72924;SDS011;61070;50.794;7.054;2023-05-15T12:37:30;25.35;;;12.70;;
72924;SDS011;61070;50.794;7.054;2023-05-15T12:39:59;21.90;;;12.73;;
72924;SDS011;61070;50.794;7.054;2023-05-15T12:42:26;26.95;;;14.43;;
72924;SDS011;61070;50.794;7.054;2023-05-15T12:44:52;26.40;;;11.35;;
72924;SDS011;61070;50.794;7.054;2023-05-15T12:47:25;13.23;;;10.30;;
72924;SDS011;61070;50.794;7.054;2023-05-15T12:49:55;25.95;;;11.75;;
72924;SDS011;61070;50.794;7.054;2023-05-15T12:52:21;22.75;;;10.77;;
72924;SDS011;61070;50.794;7.054;2023-05-15T12:54:46;26.95;;;12.68;;
72924;SDS011;61070;50.794;7.054;2023-05-15T12:57:12;19.45;;;10.18;;
72924;SDS011;61070;50.794;7.054;2023-05-15T12:59:38;28.02;;;13.05;;
72924;SDS011;61070;50.794;7.054;2023-05-15T13:02:07;19.52;;;11.18;;
72924;SDS011;61070;50.794;7.054;2023-05-15T13:04:34;18.25;;;10.95;;
72924;SDS011;61070;50.794;7.054;2023-05-15T13:06:59;21.05;;;9.75;;
72924;SDS011;61070;50.794;7.054;2023-05-15T13:09:25;18.95;;;10.35;;
72924;SDS011;61070;50.794;7.054;2023-05-15T13:11:50;20.10;;;11.65;;
72924;SDS011;61070;50.794;7.054;2023-05-15T13:14:19;17.55;;;10.57;;
72924;SDS011;61070;50.794;7.054;2023-05-15T13:16:45;18.77;;;10.90;;
72924;SDS011;61070;50.794;7.054;2023-05-15T13:19:11;17.35;;;10.90;;
72924;SDS011;61070;50.794;7.054;2023-05-15T13:21:36;26.42;;;12.82;;
72924;SDS011;61070;50.794;7.054;2023-05-15T13:24:02;14.85;;;11.35;;
72924;SDS011;61070;50.794;7.054;2023-05-15T13:26:28;24.85;;;12.00;;
72924;SDS011;61070;50.794;7.054;2023-05-15T13:28:53;18.67;;;10.65;;
72924;SDS011;61070;50.794;7.054;2023-05-15T13:31:18;19.48;;;10.32;;
72924;SDS011;61070;50.794;7.054;2023-05-15T13:33:43;20.20;;;12.85;;
72924;SDS011;61070;50.794;7.054;2023-05-15T13:36:09;18.67;;;11.38;;
72924;SDS011;61070;50.794;7.054;2023-05-15T13:38:35;22.17;;;12.32;;
72924;SDS011;61070;50.794;7.054;2023-05-15T13:41:00;17.35;;;11.82;;
72924;SDS011;61070;50.794;7.054;2023-05-15T13:43:26;17.88;;;11.70;;
72924;SDS011;61070;50.794;7.054;2023-05-15T13:45:51;18.20;;;11.30;;
72924;SDS011;61070;50.794;7.054;2023-05-15T13:48:16;15.68;;;9.85;;
72924;SDS011;61070;50.794;7.054;2023-05-15T13:50:42;20.45;;;11.10;;
72924;SDS011;61070;50.794;7.054;2023-05-15T13:53:09;15.65;;;11.27;;
72924;SDS011;61070;50.794;7.054;2023-05-15T13:55:34;24.83;;;10.93;;
72924;SDS011;61070;50.794;7.054;2023-05-15T13:58:00;19.17;;;10.50;;
72924;SDS011;61070;50.794;7.054;2023-05-15T14:00:25;18.30;;;10.43;;
72924;SDS011;61070;50.794;7.054;2023-05-15T14:02:50;17.27;;;9.10;;
72924;SDS011;61070;50.794;7.054;2023-05-15T14:05:16;20.42;;;8.68;;
72924;SDS011;61070;50.794;7.054;2023-05-15T14:07:42;12.20;;;7.85;;
72924;SDS011;61070;50.794;7.054;2023-05-15T14:10:07;12.95;;;8.88;;
72924;SDS011;61070;50.794;7.054;2023-05-15T14:12:35;18.20;;;10.05;;
72924;SDS011;61070;50.794;7.054;2023-05-15T14:15:01;14.77;;;8.63;;
72924;SDS011;61070;50.794;7.054;2023-05-15T14:17:26;14.32;;;8.60;;
72924;SDS011;61070;50.794;7.054;2023-05-15T14:19:52;13.88;;;8.45;;
72924;SDS011;61070;50.794;7.054;2023-05-15T14:22:17;15.25;;;8.52;;
72924;SDS011;61070;50.794;7.054;2023-05-15T14:24:43;17.58;;;8.52;;
72924;SDS011;61070;50.794;7.054;2023-05-15T14:27:08;12.73;;;7.93;;
72924;SDS011;61070;50.794;7.054;2023-05-15T14:29:34;18.45;;;9.32;;
72924;SDS011;61070;50.794;7.054;2023-05-15T14:31:59;18.52;;;9.77;;
72924;SDS011;61070;50.794;7.054;2023-05-15T14:34:25;14.50;;;8.70;;
72924;SDS011;61070;50.794;7.054;2023-05-15T14:36:50;16.50;;;11.07;;
72924;SDS011;61070;50.794;7.054;2023-05-15T14:39:16;15.88;;;8.70;;
72924;SDS011;61070;50.794;7.054;2023-05-15T14:41:42;13.93;;;8.20;;
72924;SDS011;61070;50.794;7.054;2023-05-15T14:44:08;16.50;;;9.65;;
72924;SDS011;61070;50.794;7.054;2023-05-15T14:46:34;15.35;;;8.68;;
72924;SDS011;61070;50.794;7.054;2023-05-15T14:49:05;14.13;;;8.18;;
72924;SDS011;61070;50.794;7.054;2023-05-15T14:51:31;14.00;;;8.77;;
72924;SDS011;61070;50.794;7.054;2023-05-15T14:53:56;16.52;;;8.45;;
72924;SDS011;61070;50.794;7.054;2023-05-15T14:56:22;24.80;;;11.00;;